VOHY/HYD METAR and TAF weather

Enter ICAO airport designator
Station Type Date Time Source
VOHY METAR 2019/02/23 16:00 UTC NOAA

VOHY 231600Z VRB03KT 6000 SCT020 29/17 Q1015 NOSIG


Station Type Date Time Source
VOHY Decoded METAR 2019/02/23 16:00 UTC NOAA

Hyderabad Airport, India (VOHY) 17-27N 078-28E 545M
Feb 23, 2019 - 11:00 AM EST / 2019.02.23 1600 UTC
Wind: Variable at 3 MPH (3 KT):0
Visibility: 3 mile(s):0
Sky conditions: partly cloudy
Temperature: 84 F (29 C)
Dew Point: 62 F (17 C)
Relative Humidity: 48%
Pressure (altimeter): 29.97 in. Hg (1015 hPa)
ob: VOHY 231600Z VRB03KT 6000 SCT020 29/17 Q1015 NOSIG
cycle: 16

Station Type Date Time Source
VOHY TAF 2019/02/18 12:00 UTC NOAA

TAF VOHY 181100Z 1812/1821 05008KT 6000 SCT020 SCT025
BECMG 1814/1816 14006KT 5000 HZ FEW015


Example: see airport list